Saransk, Russia
Current Conditions -  °F | °C
As of 7:00 PM on Friday 21 Nov 2014 (Local Time) from UWLW Reporting Station
Haze Haze  
Wind Chill: 23°   Ceiling: 100
Heat Index: 23°   Visibility: 1mi
Dew Point: 23°   Wind: 0mph
Humidity: 100%   Direction: NA
Pressure: 30.5"   Gusts: NA
Location:  54.18°N, 45.18°E
Report Text: UWLW 211600Z 00000MPS 1600 BR OVC001 M05/M05 Q1033 02CLRD60TEMPO 0400 FZFG VV001 RMK QBB050 QFE768
Loading
Personal Weather Stations






























Interactive Weather Map New forecast layout! Learn more

10-Day Weather Forecast

Advertisements
Track Severe Weather on mobile